Details for Ryanair at EINN




Go Back


Latest METAR
Local Time

EINN 180600Z 17005KT 9999 SCT014 BKN018 16/14 Q1016 NOSIG
18/08/2018, 07:29:10

Description
Results
Ryanair Logo
Number of Pilots based at EINN
0 Pilots Based here
Number of Ryanair Flights Departed from EINN
1 Flights Departed
Number of Ryanair Flights Arrived at EINN
0 Flights Arrived
Number of Ryanair Schedules Departing from EINN
30 Schedules
Number of Ryanair Schedules Arriving at EINN
30 Schedules
Number of Ryanair Schedules Departing from EINN availible today
7 Schedules Today
Number of Ryanair Schedules Arriving at EINN availible today
7 Schedules Today
Average Landing Rate at EINN
-200 fpm
Ryanair Average Landing Rate at EINN
0 fpm
Total Fuel Purchased at EINN by Ryanair
3,354.32 kgs / 7,394.93 lbs

Pilots Based at EINN


Pilot ID
Pilot Name
Pilot Rank
No. of Flights
No. of Flying Hours
There are no pilots assigned to this hub!   Will you be the first?
Content